sensor_id;sensor_type;location;lat;lon;timestamp;P1;durP1;ratioP1;P2;durP2;ratioP2
39656;SDS011;25337;51.478;7.510;2024-01-25T00:02:05;30.48;;;6.35;;
39656;SDS011;25337;51.478;7.510;2024-01-25T00:04:31;30.13;;;5.50;;
39656;SDS011;25337;51.478;7.510;2024-01-25T00:06:56;28.02;;;4.82;;
39656;SDS011;25337;51.478;7.510;2024-01-25T00:09:22;31.13;;;5.82;;
39656;SDS011;25337;51.478;7.510;2024-01-25T00:11:48;24.15;;;3.90;;
39656;SDS011;25337;51.478;7.510;2024-01-25T00:14:13;31.38;;;5.18;;
39656;SDS011;25337;51.478;7.510;2024-01-25T00:16:40;25.58;;;5.40;;
39656;SDS011;25337;51.478;7.510;2024-01-25T00:19:07;29.92;;;5.95;;
39656;SDS011;25337;51.478;7.510;2024-01-25T00:21:32;23.45;;;4.28;;
39656;SDS011;25337;51.478;7.510;2024-01-25T00:23:58;30.25;;;5.03;;
39656;SDS011;25337;51.478;7.510;2024-01-25T00:26:24;21.92;;;4.78;;
39656;SDS011;25337;51.478;7.510;2024-01-25T00:28:49;25.02;;;5.40;;
39656;SDS011;25337;51.478;7.510;2024-01-25T00:31:15;29.95;;;6.15;;
39656;SDS011;25337;51.478;7.510;2024-01-25T00:33:40;23.38;;;4.03;;
39656;SDS011;25337;51.478;7.510;2024-01-25T00:36:06;34.03;;;5.90;;
39656;SDS011;25337;51.478;7.510;2024-01-25T00:38:32;25.90;;;5.22;;
39656;SDS011;25337;51.478;7.510;2024-01-25T00:40:58;29.27;;;5.60;;
39656;SDS011;25337;51.478;7.510;2024-01-25T00:43:24;30.55;;;6.05;;
39656;SDS011;25337;51.478;7.510;2024-01-25T00:45:50;36.42;;;6.90;;
39656;SDS011;25337;51.478;7.510;2024-01-25T00:48:16;22.50;;;4.93;;
39656;SDS011;25337;51.478;7.510;2024-01-25T00:50:42;28.30;;;5.38;;
39656;SDS011;25337;51.478;7.510;2024-01-25T00:53:08;22.42;;;5.03;;
39656;SDS011;25337;51.478;7.510;2024-01-25T00:55:34;30.73;;;5.78;;
39656;SDS011;25337;51.478;7.510;2024-01-25T00:57:59;24.75;;;3.85;;
39656;SDS011;25337;51.478;7.510;2024-01-25T01:00:25;23.50;;;4.03;;
39656;SDS011;25337;51.478;7.510;2024-01-25T01:02:51;27.60;;;3.83;;
39656;SDS011;25337;51.478;7.510;2024-01-25T01:05:18;34.05;;;5.50;;
39656;SDS011;25337;51.478;7.510;2024-01-25T01:07:44;21.23;;;4.57;;
39656;SDS011;25337;51.478;7.510;2024-01-25T01:10:10;22.75;;;5.22;;
39656;SDS011;25337;51.478;7.510;2024-01-25T01:12:36;23.35;;;4.13;;
39656;SDS011;25337;51.478;7.510;2024-01-25T01:15:02;23.30;;;5.18;;
39656;SDS011;25337;51.478;7.510;2024-01-25T01:17:28;22.88;;;3.83;;
39656;SDS011;25337;51.478;7.510;2024-01-25T01:19:54;31.45;;;4.78;;
39656;SDS011;25337;51.478;7.510;2024-01-25T01:22:20;27.77;;;5.13;;
39656;SDS011;25337;51.478;7.510;2024-01-25T01:24:45;28.98;;;7.47;;
39656;SDS011;25337;51.478;7.510;2024-01-25T01:27:11;17.40;;;4.53;;
39656;SDS011;25337;51.478;7.510;2024-01-25T01:29:36;19.95;;;4.50;;
39656;SDS011;25337;51.478;7.510;2024-01-25T01:32:02;22.67;;;4.82;;
39656;SDS011;25337;51.478;7.510;2024-01-25T01:34:28;28.58;;;5.60;;
39656;SDS011;25337;51.478;7.510;2024-01-25T01:36:54;29.88;;;4.30;;
39656;SDS011;25337;51.478;7.510;2024-01-25T01:39:19;31.30;;;4.55;;
39656;SDS011;25337;51.478;7.510;2024-01-25T01:41:48;22.52;;;5.10;;
39656;SDS011;25337;51.478;7.510;2024-01-25T01:44:14;19.02;;;3.58;;
39656;SDS011;25337;51.478;7.510;2024-01-25T01:46:40;21.02;;;4.57;;
39656;SDS011;25337;51.478;7.510;2024-01-25T01:49:08;34.78;;;5.28;;
39656;SDS011;25337;51.478;7.510;2024-01-25T01:51:36;19.35;;;3.78;;
39656;SDS011;25337;51.478;7.510;2024-01-25T01:54:03;25.88;;;4.97;;
39656;SDS011;25337;51.478;7.510;2024-01-25T01:56:31;26.40;;;5.75;;
39656;SDS011;25337;51.478;7.510;2024-01-25T01:58:57;41.10;;;5.93;;
39656;SDS011;25337;51.478;7.510;2024-01-25T02:01:24;26.27;;;5.32;;
39656;SDS011;25337;51.478;7.510;2024-01-25T02:03:50;25.75;;;4.95;;
39656;SDS011;25337;51.478;7.510;2024-01-25T02:06:16;32.00;;;5.70;;
39656;SDS011;25337;51.478;7.510;2024-01-25T02:08:42;29.45;;;6.05;;
39656;SDS011;25337;51.478;7.510;2024-01-25T02:11:10;16.75;;;3.40;;
39656;SDS011;25337;51.478;7.510;2024-01-25T02:13:39;28.00;;;5.10;;
39656;SDS011;25337;51.478;7.510;2024-01-25T02:16:05;21.25;;;3.83;;
39656;SDS011;25337;51.478;7.510;2024-01-25T02:18:32;24.17;;;5.28;;
39656;SDS011;25337;51.478;7.510;2024-01-25T02:20:58;22.73;;;4.00;;
39656;SDS011;25337;51.478;7.510;2024-01-25T02:23:24;14.13;;;3.05;;
39656;SDS011;25337;51.478;7.510;2024-01-25T02:25:49;26.35;;;4.53;;
39656;SDS011;25337;51.478;7.510;2024-01-25T02:28:15;25.90;;;5.57;;
39656;SDS011;25337;51.478;7.510;2024-01-25T02:30:41;22.65;;;5.10;;
39656;SDS011;25337;51.478;7.510;2024-01-25T02:33:06;23.48;;;4.13;;
39656;SDS011;25337;51.478;7.510;2024-01-25T02:35:32;22.83;;;4.43;;
39656;SDS011;25337;51.478;7.510;2024-01-25T02:37:58;21.98;;;3.75;;
39656;SDS011;25337;51.478;7.510;2024-01-25T02:40:24;25.63;;;4.38;;
39656;SDS011;25337;51.478;7.510;2024-01-25T02:42:50;25.83;;;5.80;;
39656;SDS011;25337;51.478;7.510;2024-01-25T02:45:15;32.15;;;5.63;;
39656;SDS011;25337;51.478;7.510;2024-01-25T02:47:41;26.02;;;5.40;;
39656;SDS011;25337;51.478;7.510;2024-01-25T02:50:07;19.70;;;4.18;;
39656;SDS011;25337;51.478;7.510;2024-01-25T02:52:33;24.73;;;5.45;;
39656;SDS011;25337;51.478;7.510;2024-01-25T02:54:58;21.75;;;4.32;;
39656;SDS011;25337;51.478;7.510;2024-01-25T02:57:24;11.15;;;3.00;;
39656;SDS011;25337;51.478;7.510;2024-01-25T02:59:50;15.25;;;3.72;;
39656;SDS011;25337;51.478;7.510;2024-01-25T03:02:16;21.33;;;5.03;;
39656;SDS011;25337;51.478;7.510;2024-01-25T03:04:44;34.72;;;5.47;;
39656;SDS011;25337;51.478;7.510;2024-01-25T03:07:10;30.85;;;6.55;;
39656;SDS011;25337;51.478;7.510;2024-01-25T03:09:35;28.23;;;5.43;;
39656;SDS011;25337;51.478;7.510;2024-01-25T03:12:01;27.55;;;4.72;;
39656;SDS011;25337;51.478;7.510;2024-01-25T03:14:27;24.83;;;5.72;;
39656;SDS011;25337;51.478;7.510;2024-01-25T03:16:52;19.35;;;3.53;;
39656;SDS011;25337;51.478;7.510;2024-01-25T03:19:18;19.27;;;3.45;;
39656;SDS011;25337;51.478;7.510;2024-01-25T03:21:44;16.88;;;4.18;;
39656;SDS011;25337;51.478;7.510;2024-01-25T03:24:09;28.42;;;4.55;;
39656;SDS011;25337;51.478;7.510;2024-01-25T03:26:35;24.05;;;4.40;;
39656;SDS011;25337;51.478;7.510;2024-01-25T03:29:01;22.40;;;4.07;;
39656;SDS011;25337;51.478;7.510;2024-01-25T03:31:26;40.83;;;7.40;;
39656;SDS011;25337;51.478;7.510;2024-01-25T03:33:52;27.55;;;6.22;;
39656;SDS011;25337;51.478;7.510;2024-01-25T03:36:17;17.58;;;4.07;;
39656;SDS011;25337;51.478;7.510;2024-01-25T03:38:43;29.40;;;5.07;;
39656;SDS011;25337;51.478;7.510;2024-01-25T03:41:09;19.42;;;4.47;;
39656;SDS011;25337;51.478;7.510;2024-01-25T03:43:35;23.52;;;4.50;;
39656;SDS011;25337;51.478;7.510;2024-01-25T03:46:00;35.13;;;5.28;;
39656;SDS011;25337;51.478;7.510;2024-01-25T03:48:27;16.25;;;2.80;;
39656;SDS011;25337;51.478;7.510;2024-01-25T03:50:53;34.85;;;5.45;;
39656;SDS011;25337;51.478;7.510;2024-01-25T03:53:22;29.67;;;5.35;;
39656;SDS011;25337;51.478;7.510;2024-01-25T03:55:48;23.02;;;3.88;;
39656;SDS011;25337;51.478;7.510;2024-01-25T03:58:14;22.50;;;4.22;;
39656;SDS011;25337;51.478;7.510;2024-01-25T04:00:45;31.02;;;5.60;;
39656;SDS011;25337;51.478;7.510;2024-01-25T04:03:11;34.63;;;4.82;;
39656;SDS011;25337;51.478;7.510;2024-01-25T04:05:37;23.63;;;4.88;;
39656;SDS011;25337;51.478;7.510;2024-01-25T04:08:04;26.33;;;4.95;;
39656;SDS011;25337;51.478;7.510;2024-01-25T04:10:31;24.40;;;4.97;;
39656;SDS011;25337;51.478;7.510;2024-01-25T04:12:57;35.78;;;4.63;;
39656;SDS011;25337;51.478;7.510;2024-01-25T04:15:25;26.52;;;4.75;;
39656;SDS011;25337;51.478;7.510;2024-01-25T04:17:51;26.55;;;5.53;;
39656;SDS011;25337;51.478;7.510;2024-01-25T04:20:18;31.98;;;4.65;;
39656;SDS011;25337;51.478;7.510;2024-01-25T04:22:44;29.85;;;6.00;;
39656;SDS011;25337;51.478;7.510;2024-01-25T04:25:10;18.50;;;3.95;;
39656;SDS011;25337;51.478;7.510;2024-01-25T04:27:37;32.72;;;4.45;;
39656;SDS011;25337;51.478;7.510;2024-01-25T04:30:03;26.63;;;5.13;;
39656;SDS011;25337;51.478;7.510;2024-01-25T04:32:30;31.92;;;4.95;;
39656;SDS011;25337;51.478;7.510;2024-01-25T04:34:55;28.90;;;4.65;;
39656;SDS011;25337;51.478;7.510;2024-01-25T04:37:21;25.58;;;4.63;;
39656;SDS011;25337;51.478;7.510;2024-01-25T04:39:47;29.80;;;5.47;;
39656;SDS011;25337;51.478;7.510;2024-01-25T04:42:13;37.90;;;6.30;;
39656;SDS011;25337;51.478;7.510;2024-01-25T04:44:39;14.90;;;3.15;;
39656;SDS011;25337;51.478;7.510;2024-01-25T04:47:04;25.42;;;5.47;;
39656;SDS011;25337;51.478;7.510;2024-01-25T04:49:30;32.78;;;6.15;;
39656;SDS011;25337;51.478;7.510;2024-01-25T04:51:56;27.50;;;4.85;;
39656;SDS011;25337;51.478;7.510;2024-01-25T04:54:21;22.33;;;5.40;;
39656;SDS011;25337;51.478;7.510;2024-01-25T04:56:47;26.95;;;4.00;;
39656;SDS011;25337;51.478;7.510;2024-01-25T04:59:12;24.25;;;4.50;;
39656;SDS011;25337;51.478;7.510;2024-01-25T05:01:38;39.97;;;6.65;;
39656;SDS011;25337;51.478;7.510;2024-01-25T05:04:04;32.97;;;5.30;;
39656;SDS011;25337;51.478;7.510;2024-01-25T05:06:30;29.17;;;5.28;;
39656;SDS011;25337;51.478;7.510;2024-01-25T05:08:56;32.30;;;5.50;;
39656;SDS011;25337;51.478;7.510;2024-01-25T05:11:21;30.60;;;5.18;;
39656;SDS011;25337;51.478;7.510;2024-01-25T05:13:47;38.20;;;7.53;;
39656;SDS011;25337;51.478;7.510;2024-01-25T05:16:12;29.45;;;6.28;;
39656;SDS011;25337;51.478;7.510;2024-01-25T05:18:38;22.88;;;5.25;;
39656;SDS011;25337;51.478;7.510;2024-01-25T05:21:04;41.80;;;6.90;;
39656;SDS011;25337;51.478;7.510;2024-01-25T05:23:29;29.83;;;5.68;;
39656;SDS011;25337;51.478;7.510;2024-01-25T05:25:55;35.03;;;5.53;;
39656;SDS011;25337;51.478;7.510;2024-01-25T05:28:21;36.45;;;5.07;;
39656;SDS011;25337;51.478;7.510;2024-01-25T05:30:46;36.53;;;5.10;;
39656;SDS011;25337;51.478;7.510;2024-01-25T05:33:12;31.27;;;4.97;;
39656;SDS011;25337;51.478;7.510;2024-01-25T05:35:37;33.20;;;6.40;;
39656;SDS011;25337;51.478;7.510;2024-01-25T05:38:03;23.45;;;4.05;;
39656;SDS011;25337;51.478;7.510;2024-01-25T05:40:29;35.05;;;5.25;;
39656;SDS011;25337;51.478;7.510;2024-01-25T05:42:54;36.45;;;6.57;;
39656;SDS011;25337;51.478;7.510;2024-01-25T05:45:20;30.10;;;6.47;;
39656;SDS011;25337;51.478;7.510;2024-01-25T05:47:47;37.60;;;5.68;;
39656;SDS011;25337;51.478;7.510;2024-01-25T05:50:12;46.47;;;7.18;;
39656;SDS011;25337;51.478;7.510;2024-01-25T05:52:38;46.47;;;7.85;;
39656;SDS011;25337;51.478;7.510;2024-01-25T05:55:07;31.42;;;5.53;;
39656;SDS011;25337;51.478;7.510;2024-01-25T05:57:34;35.72;;;6.47;;
39656;SDS011;25337;51.478;7.510;2024-01-25T06:00:00;39.45;;;5.78;;
39656;SDS011;25337;51.478;7.510;2024-01-25T06:02:26;34.10;;;6.10;;
39656;SDS011;25337;51.478;7.510;2024-01-25T06:04:51;32.05;;;6.05;;
39656;SDS011;25337;51.478;7.510;2024-01-25T06:07:17;33.75;;;5.70;;
39656;SDS011;25337;51.478;7.510;2024-01-25T06:09:42;49.05;;;7.43;;
39656;SDS011;25337;51.478;7.510;2024-01-25T06:12:08;42.13;;;7.78;;
39656;SDS011;25337;51.478;7.510;2024-01-25T06:14:34;37.63;;;7.05;;
39656;SDS011;25337;51.478;7.510;2024-01-25T06:16:59;34.22;;;6.68;;
39656;SDS011;25337;51.478;7.510;2024-01-25T06:19:25;35.95;;;7.07;;
39656;SDS011;25337;51.478;7.510;2024-01-25T06:21:50;33.35;;;7.13;;
39656;SDS011;25337;51.478;7.510;2024-01-25T06:24:16;38.42;;;7.00;;
39656;SDS011;25337;51.478;7.510;2024-01-25T06:26:42;48.35;;;7.85;;
39656;SDS011;25337;51.478;7.510;2024-01-25T06:29:07;38.17;;;7.43;;
39656;SDS011;25337;51.478;7.510;2024-01-25T06:31:39;40.08;;;7.10;;
39656;SDS011;25337;51.478;7.510;2024-01-25T06:34:06;36.67;;;8.27;;
39656;SDS011;25337;51.478;7.510;2024-01-25T06:36:32;41.75;;;7.65;;
39656;SDS011;25337;51.478;7.510;2024-01-25T06:38:57;46.55;;;7.50;;
39656;SDS011;25337;51.478;7.510;2024-01-25T06:41:23;41.50;;;7.43;;
39656;SDS011;25337;51.478;7.510;2024-01-25T06:43:49;37.70;;;6.80;;
39656;SDS011;25337;51.478;7.510;2024-01-25T06:46:15;41.45;;;8.48;;
39656;SDS011;25337;51.478;7.510;2024-01-25T06:48:40;29.63;;;7.47;;
39656;SDS011;25337;51.478;7.510;2024-01-25T06:51:06;38.53;;;7.88;;
39656;SDS011;25337;51.478;7.510;2024-01-25T06:53:31;41.97;;;7.60;;
39656;SDS011;25337;51.478;7.510;2024-01-25T06:55:57;43.50;;;7.35;;
39656;SDS011;25337;51.478;7.510;2024-01-25T06:58:23;38.13;;;8.50;;
39656;SDS011;25337;51.478;7.510;2024-01-25T07:00:48;37.88;;;8.18;;
39656;SDS011;25337;51.478;7.510;2024-01-25T07:03:14;43.58;;;8.45;;
39656;SDS011;25337;51.478;7.510;2024-01-25T07:05:40;43.92;;;9.07;;
39656;SDS011;25337;51.478;7.510;2024-01-25T07:08:06;47.35;;;9.05;;
39656;SDS011;25337;51.478;7.510;2024-01-25T07:10:34;45.33;;;8.18;;
39656;SDS011;25337;51.478;7.510;2024-01-25T07:13:00;40.13;;;8.32;;
39656;SDS011;25337;51.478;7.510;2024-01-25T07:15:25;40.63;;;8.07;;
39656;SDS011;25337;51.478;7.510;2024-01-25T07:17:51;45.45;;;7.93;;
39656;SDS011;25337;51.478;7.510;2024-01-25T07:20:16;52.47;;;9.13;;
39656;SDS011;25337;51.478;7.510;2024-01-25T07:22:42;37.72;;;7.78;;
39656;SDS011;25337;51.478;7.510;2024-01-25T07:25:08;42.33;;;8.23;;
39656;SDS011;25337;51.478;7.510;2024-01-25T07:27:33;38.88;;;9.05;;
39656;SDS011;25337;51.478;7.510;2024-01-25T07:29:59;42.47;;;8.65;;
39656;SDS011;25337;51.478;7.510;2024-01-25T07:32:25;30.85;;;7.88;;
39656;SDS011;25337;51.478;7.510;2024-01-25T07:34:50;44.13;;;7.55;;
39656;SDS011;25337;51.478;7.510;2024-01-25T07:37:16;46.63;;;8.38;;
39656;SDS011;25337;51.478;7.510;2024-01-25T07:39:43;51.13;;;7.97;;
39656;SDS011;25337;51.478;7.510;2024-01-25T07:42:09;41.88;;;9.43;;
39656;SDS011;25337;51.478;7.510;2024-01-25T07:44:35;43.65;;;7.72;;
39656;SDS011;25337;51.478;7.510;2024-01-25T07:47:01;47.95;;;8.85;;
39656;SDS011;25337;51.478;7.510;2024-01-25T07:49:27;51.13;;;9.13;;
39656;SDS011;25337;51.478;7.510;2024-01-25T07:51:52;51.10;;;8.57;;
39656;SDS011;25337;51.478;7.510;2024-01-25T07:54:18;42.63;;;9.43;;
39656;SDS011;25337;51.478;7.510;2024-01-25T07:56:44;54.60;;;9.43;;
39656;SDS011;25337;51.478;7.510;2024-01-25T07:59:09;49.22;;;9.40;;
39656;SDS011;25337;51.478;7.510;2024-01-25T08:01:35;46.10;;;9.57;;
39656;SDS011;25337;51.478;7.510;2024-01-25T08:04:00;47.00;;;10.85;;
39656;SDS011;25337;51.478;7.510;2024-01-25T08:06:28;48.30;;;9.90;;
39656;SDS011;25337;51.478;7.510;2024-01-25T08:08:54;47.25;;;10.55;;
39656;SDS011;25337;51.478;7.510;2024-01-25T08:11:19;55.10;;;10.32;;
39656;SDS011;25337;51.478;7.510;2024-01-25T08:13:46;45.47;;;10.18;;
39656;SDS011;25337;51.478;7.510;2024-01-25T08:16:14;47.15;;;11.30;;
39656;SDS011;25337;51.478;7.510;2024-01-25T08:18:44;48.20;;;12.50;;
39656;SDS011;25337;51.478;7.510;2024-01-25T08:21:10;43.22;;;10.73;;
39656;SDS011;25337;51.478;7.510;2024-01-25T08:23:37;42.22;;;10.43;;
39656;SDS011;25337;51.478;7.510;2024-01-25T08:26:03;43.40;;;9.65;;
39656;SDS011;25337;51.478;7.510;2024-01-25T08:28:29;47.50;;;11.27;;
39656;SDS011;25337;51.478;7.510;2024-01-25T08:30:54;45.08;;;11.05;;
39656;SDS011;25337;51.478;7.510;2024-01-25T08:33:20;42.30;;;12.05;;
39656;SDS011;25337;51.478;7.510;2024-01-25T08:35:46;40.78;;;8.88;;
39656;SDS011;25337;51.478;7.510;2024-01-25T08:38:11;46.35;;;11.80;;
39656;SDS011;25337;51.478;7.510;2024-01-25T08:40:37;46.92;;;11.63;;
39656;SDS011;25337;51.478;7.510;2024-01-25T08:43:03;43.10;;;13.07;;
39656;SDS011;25337;51.478;7.510;2024-01-25T08:45:29;46.10;;;12.82;;
39656;SDS011;25337;51.478;7.510;2024-01-25T08:47:55;56.30;;;13.10;;
39656;SDS011;25337;51.478;7.510;2024-01-25T08:50:22;43.22;;;10.23;;
39656;SDS011;25337;51.478;7.510;2024-01-25T08:52:47;53.28;;;14.73;;
39656;SDS011;25337;51.478;7.510;2024-01-25T08:55:13;46.88;;;10.80;;
39656;SDS011;25337;51.478;7.510;2024-01-25T08:57:39;47.03;;;10.80;;
39656;SDS011;25337;51.478;7.510;2024-01-25T09:00:06;61.38;;;14.30;;
39656;SDS011;25337;51.478;7.510;2024-01-25T09:02:38;46.05;;;11.77;;
39656;SDS011;25337;51.478;7.510;2024-01-25T09:05:04;60.70;;;12.00;;
39656;SDS011;25337;51.478;7.510;2024-01-25T09:07:30;35.05;;;9.35;;
39656;SDS011;25337;51.478;7.510;2024-01-25T09:09:56;41.22;;;12.73;;
39656;SDS011;25337;51.478;7.510;2024-01-25T09:12:22;52.05;;;13.55;;
39656;SDS011;25337;51.478;7.510;2024-01-25T09:14:48;45.92;;;13.50;;
39656;SDS011;25337;51.478;7.510;2024-01-25T09:17:13;53.90;;;12.05;;
39656;SDS011;25337;51.478;7.510;2024-01-25T09:19:40;44.17;;;13.05;;
39656;SDS011;25337;51.478;7.510;2024-01-25T09:22:06;47.03;;;13.35;;
39656;SDS011;25337;51.478;7.510;2024-01-25T09:24:33;37.70;;;11.50;;
39656;SDS011;25337;51.478;7.510;2024-01-25T09:27:01;55.72;;;13.60;;
39656;SDS011;25337;51.478;7.510;2024-01-25T09:29:27;43.47;;;12.13;;
39656;SDS011;25337;51.478;7.510;2024-01-25T09:31:53;38.80;;;10.15;;
39656;SDS011;25337;51.478;7.510;2024-01-25T09:34:19;49.28;;;13.07;;
39656;SDS011;25337;51.478;7.510;2024-01-25T09:36:46;41.92;;;11.10;;
39656;SDS011;25337;51.478;7.510;2024-01-25T09:39:12;45.92;;;12.70;;
39656;SDS011;25337;51.478;7.510;2024-01-25T09:41:39;39.25;;;12.00;;
39656;SDS011;25337;51.478;7.510;2024-01-25T09:44:07;42.40;;;10.93;;
39656;SDS011;25337;51.478;7.510;2024-01-25T09:46:33;42.95;;;12.68;;
39656;SDS011;25337;51.478;7.510;2024-01-25T09:49:00;42.78;;;12.13;;
39656;SDS011;25337;51.478;7.510;2024-01-25T09:51:26;42.33;;;12.07;;
39656;SDS011;25337;51.478;7.510;2024-01-25T09:53:53;50.90;;;10.23;;
39656;SDS011;25337;51.478;7.510;2024-01-25T09:56:19;46.85;;;10.27;;
39656;SDS011;25337;51.478;7.510;2024-01-25T09:58:46;41.30;;;9.55;;
39656;SDS011;25337;51.478;7.510;2024-01-25T10:01:13;31.35;;;8.55;;
39656;SDS011;25337;51.478;7.510;2024-01-25T10:03:43;35.17;;;10.23;;
39656;SDS011;25337;51.478;7.510;2024-01-25T10:06:13;35.97;;;9.68;;
39656;SDS011;25337;51.478;7.510;2024-01-25T10:08:39;41.35;;;12.27;;
39656;SDS011;25337;51.478;7.510;2024-01-25T10:11:05;40.00;;;11.02;;
39656;SDS011;25337;51.478;7.510;2024-01-25T10:13:33;20.23;;;6.63;;
39656;SDS011;25337;51.478;7.510;2024-01-25T10:16:05;39.85;;;9.45;;
39656;SDS011;25337;51.478;7.510;2024-01-25T10:18:31;40.20;;;10.63;;
39656;SDS011;25337;51.478;7.510;2024-01-25T10:20:57;39.60;;;10.52;;
39656;SDS011;25337;51.478;7.510;2024-01-25T10:23:25;34.17;;;8.65;;
39656;SDS011;25337;51.478;7.510;2024-01-25T10:25:50;31.17;;;8.77;;
39656;SDS011;25337;51.478;7.510;2024-01-25T10:28:16;31.70;;;9.40;;
39656;SDS011;25337;51.478;7.510;2024-01-25T10:30:42;32.92;;;9.45;;
39656;SDS011;25337;51.478;7.510;2024-01-25T10:33:08;38.30;;;10.30;;
39656;SDS011;25337;51.478;7.510;2024-01-25T10:35:35;37.00;;;9.63;;
39656;SDS011;25337;51.478;7.510;2024-01-25T10:38:02;33.60;;;8.68;;
39656;SDS011;25337;51.478;7.510;2024-01-25T10:40:29;28.27;;;9.27;;
39656;SDS011;25337;51.478;7.510;2024-01-25T10:42:54;30.17;;;7.18;;
39656;SDS011;25337;51.478;7.510;2024-01-25T10:45:20;33.78;;;9.07;;
39656;SDS011;25337;51.478;7.510;2024-01-25T10:47:49;34.75;;;10.52;;
39656;SDS011;25337;51.478;7.510;2024-01-25T10:50:15;34.83;;;9.60;;
39656;SDS011;25337;51.478;7.510;2024-01-25T10:52:40;34.53;;;9.52;;
39656;SDS011;25337;51.478;7.510;2024-01-25T10:55:07;34.33;;;8.43;;
39656;SDS011;25337;51.478;7.510;2024-01-25T10:57:37;32.08;;;9.20;;
39656;SDS011;25337;51.478;7.510;2024-01-25T11:00:08;33.83;;;8.10;;
39656;SDS011;25337;51.478;7.510;2024-01-25T11:02:35;19.95;;;6.00;;
39656;SDS011;25337;51.478;7.510;2024-01-25T11:05:02;31.92;;;9.23;;
39656;SDS011;25337;51.478;7.510;2024-01-25T11:07:49;32.78;;;8.20;;
39656;SDS011;25337;51.478;7.510;2024-01-25T11:12:50;36.00;;;8.63;;
39656;SDS011;25337;51.478;7.510;2024-01-25T11:15:21;29.10;;;6.88;;
39656;SDS011;25337;51.478;7.510;2024-01-25T11:17:52;18.63;;;5.57;;
39656;SDS011;25337;51.478;7.510;2024-01-25T11:20:25;43.80;;;8.95;;
39656;SDS011;25337;51.478;7.510;2024-01-25T11:22:58;35.33;;;8.25;;
39656;SDS011;25337;51.478;7.510;2024-01-25T11:25:27;34.45;;;8.93;;
39656;SDS011;25337;51.478;7.510;2024-01-25T11:27:56;30.13;;;6.82;;
39656;SDS011;25337;51.478;7.510;2024-01-25T11:30:22;29.08;;;9.15;;
39656;SDS011;25337;51.478;7.510;2024-01-25T11:32:48;25.45;;;7.38;;
39656;SDS011;25337;51.478;7.510;2024-01-25T11:35:14;29.50;;;8.27;;
39656;SDS011;25337;51.478;7.510;2024-01-25T11:37:44;30.42;;;7.90;;
39656;SDS011;25337;51.478;7.510;2024-01-25T11:40:14;29.63;;;8.55;;
39656;SDS011;25337;51.478;7.510;2024-01-25T11:42:42;32.80;;;9.32;;
39656;SDS011;25337;51.478;7.510;2024-01-25T11:45:10;26.92;;;7.63;;
39656;SDS011;25337;51.478;7.510;2024-01-25T11:47:36;27.08;;;6.78;;
39656;SDS011;25337;51.478;7.510;2024-01-25T11:50:04;24.75;;;6.38;;
39656;SDS011;25337;51.478;7.510;2024-01-25T11:52:31;31.40;;;7.10;;
39656;SDS011;25337;51.478;7.510;2024-01-25T11:55:02;24.33;;;7.25;;
39656;SDS011;25337;51.478;7.510;2024-01-25T11:57:29;21.05;;;5.80;;
39656;SDS011;25337;51.478;7.510;2024-01-25T11:59:57;25.70;;;5.70;;
39656;SDS011;25337;51.478;7.510;2024-01-25T12:02:23;17.98;;;5.15;;
39656;SDS011;25337;51.478;7.510;2024-01-25T12:04:50;27.25;;;6.65;;
39656;SDS011;25337;51.478;7.510;2024-01-25T12:07:18;30.98;;;6.10;;
39656;SDS011;25337;51.478;7.510;2024-01-25T12:09:45;31.17;;;7.80;;
39656;SDS011;25337;51.478;7.510;2024-01-25T12:12:27;37.35;;;6.93;;
39656;SDS011;25337;51.478;7.510;2024-01-25T12:15:00;30.02;;;5.95;;
39656;SDS011;25337;51.478;7.510;2024-01-25T12:17:34;25.52;;;6.53;;
39656;SDS011;25337;51.478;7.510;2024-01-25T12:20:06;24.80;;;6.22;;
39656;SDS011;25337;51.478;7.510;2024-01-25T12:22:35;35.00;;;7.53;;
39656;SDS011;25337;51.478;7.510;2024-01-25T12:25:02;25.88;;;6.28;;
39656;SDS011;25337;51.478;7.510;2024-01-25T12:27:28;28.95;;;6.70;;
39656;SDS011;25337;51.478;7.510;2024-01-25T12:29:55;22.27;;;5.53;;
39656;SDS011;25337;51.478;7.510;2024-01-25T12:32:21;24.98;;;6.00;;
39656;SDS011;25337;51.478;7.510;2024-01-25T12:34:56;24.23;;;6.03;;
39656;SDS011;25337;51.478;7.510;2024-01-25T12:37:24;30.20;;;7.20;;
39656;SDS011;25337;51.478;7.510;2024-01-25T12:39:50;24.45;;;6.97;;
39656;SDS011;25337;51.478;7.510;2024-01-25T12:42:17;35.95;;;7.60;;
39656;SDS011;25337;51.478;7.510;2024-01-25T12:44:43;22.83;;;5.65;;
39656;SDS011;25337;51.478;7.510;2024-01-25T12:47:10;33.22;;;7.68;;
39656;SDS011;25337;51.478;7.510;2024-01-25T12:49:41;22.95;;;5.85;;
39656;SDS011;25337;51.478;7.510;2024-01-25T12:52:11;31.83;;;5.07;;
39656;SDS011;25337;51.478;7.510;2024-01-25T12:54:38;28.00;;;5.32;;
39656;SDS011;25337;51.478;7.510;2024-01-25T12:57:04;20.70;;;4.85;;
39656;SDS011;25337;51.478;7.510;2024-01-25T12:59:31;24.90;;;5.63;;
39656;SDS011;25337;51.478;7.510;2024-01-25T13:02:00;21.08;;;4.88;;
39656;SDS011;25337;51.478;7.510;2024-01-25T13:04:26;24.58;;;6.50;;
39656;SDS011;25337;51.478;7.510;2024-01-25T13:06:52;22.00;;;6.00;;
39656;SDS011;25337;51.478;7.510;2024-01-25T13:09:22;27.90;;;6.68;;
39656;SDS011;25337;51.478;7.510;2024-01-25T13:11:48;26.25;;;5.60;;
39656;SDS011;25337;51.478;7.510;2024-01-25T13:14:13;24.60;;;5.15;;
39656;SDS011;25337;51.478;7.510;2024-01-25T13:16:39;31.42;;;5.13;;
39656;SDS011;25337;51.478;7.510;2024-01-25T13:19:05;21.17;;;5.10;;
39656;SDS011;25337;51.478;7.510;2024-01-25T13:21:31;27.05;;;4.57;;
39656;SDS011;25337;51.478;7.510;2024-01-25T13:23:58;28.52;;;6.00;;
39656;SDS011;25337;51.478;7.510;2024-01-25T13:26:24;21.92;;;4.57;;
39656;SDS011;25337;51.478;7.510;2024-01-25T13:28:50;28.67;;;5.30;;
39656;SDS011;25337;51.478;7.510;2024-01-25T13:31:15;19.25;;;4.72;;
39656;SDS011;25337;51.478;7.510;2024-01-25T13:33:41;21.40;;;5.43;;
39656;SDS011;25337;51.478;7.510;2024-01-25T13:36:07;25.35;;;5.10;;
39656;SDS011;25337;51.478;7.510;2024-01-25T13:38:36;21.10;;;4.28;;
39656;SDS011;25337;51.478;7.510;2024-01-25T13:41:02;19.50;;;4.35;;
39656;SDS011;25337;51.478;7.510;2024-01-25T13:43:27;22.70;;;4.72;;
39656;SDS011;25337;51.478;7.510;2024-01-25T13:45:54;23.95;;;5.03;;
39656;SDS011;25337;51.478;7.510;2024-01-25T13:48:20;22.80;;;4.78;;
39656;SDS011;25337;51.478;7.510;2024-01-25T13:50:45;22.02;;;4.90;;
39656;SDS011;25337;51.478;7.510;2024-01-25T13:53:11;32.58;;;5.20;;
39656;SDS011;25337;51.478;7.510;2024-01-25T13:55:37;22.35;;;4.93;;
39656;SDS011;25337;51.478;7.510;2024-01-25T13:58:02;19.35;;;4.25;;
39656;SDS011;25337;51.478;7.510;2024-01-25T14:00:28;29.77;;;5.45;;
39656;SDS011;25337;51.478;7.510;2024-01-25T14:02:54;21.17;;;5.35;;
39656;SDS011;25337;51.478;7.510;2024-01-25T14:05:19;19.70;;;4.68;;
39656;SDS011;25337;51.478;7.510;2024-01-25T14:07:45;21.65;;;4.55;;
39656;SDS011;25337;51.478;7.510;2024-01-25T14:10:11;25.55;;;5.30;;
39656;SDS011;25337;51.478;7.510;2024-01-25T14:12:36;26.63;;;4.45;;
39656;SDS011;25337;51.478;7.510;2024-01-25T14:15:02;21.52;;;5.07;;
39656;SDS011;25337;51.478;7.510;2024-01-25T14:17:28;20.60;;;4.93;;
39656;SDS011;25337;51.478;7.510;2024-01-25T14:19:54;15.75;;;3.38;;
39656;SDS011;25337;51.478;7.510;2024-01-25T14:22:20;26.63;;;5.70;;
39656;SDS011;25337;51.478;7.510;2024-01-25T14:24:46;20.25;;;4.85;;
39656;SDS011;25337;51.478;7.510;2024-01-25T14:27:12;25.05;;;5.30;;
39656;SDS011;25337;51.478;7.510;2024-01-25T14:29:37;26.77;;;4.18;;
39656;SDS011;25337;51.478;7.510;2024-01-25T14:32:03;19.73;;;4.43;;